createdAt,value
2022-10-22T00:00:29.851Z,2.50
2022-10-22T00:02:57.923Z,1.97
2022-10-22T00:05:26.033Z,2.97
2022-10-22T00:07:54.046Z,2.60
2022-10-22T00:10:24.039Z,2.70
2022-10-22T00:12:52.100Z,2.50
2022-10-22T00:15:20.090Z,2.57
2022-10-22T00:17:49.646Z,2.77
2022-10-22T00:20:17.997Z,2.40
2022-10-22T00:22:46.032Z,5.10
2022-10-22T00:25:14.345Z,2.20
2022-10-22T00:27:43.764Z,2.47
2022-10-22T00:30:13.040Z,2.87
2022-10-22T00:32:41.216Z,2.37
2022-10-22T00:35:09.712Z,3.87
2022-10-22T00:38:05.632Z,3.03
2022-10-22T00:40:35.706Z,1.93
2022-10-22T00:43:05.084Z,5.60
2022-10-22T00:45:33.095Z,2.70
2022-10-22T00:48:04.566Z,2.40
2022-10-22T00:50:35.358Z,2.40
2022-10-22T00:53:04.573Z,4.23
2022-10-22T00:55:33.902Z,3.03
2022-10-22T00:58:02.706Z,2.97
2022-10-22T01:00:32.217Z,3.77
2022-10-22T01:03:00.638Z,3.43
2022-10-22T01:05:29.244Z,3.47
2022-10-22T01:07:57.403Z,2.30
2022-10-22T01:10:33.692Z,2.70
2022-10-22T01:13:11.556Z,2.60
2022-10-22T01:15:44.916Z,3.33
2022-10-22T01:18:18.256Z,3.10
2022-10-22T01:20:58.514Z,1.97
2022-10-22T01:23:45.298Z,2.50
2022-10-22T01:26:19.516Z,2.80
2022-10-22T01:28:56.744Z,5.67
2022-10-22T01:31:26.464Z,2.30
2022-10-22T01:33:55.736Z,2.00
2022-10-22T01:36:24.000Z,2.27
2022-10-22T01:38:52.939Z,1.80
2022-10-22T01:41:21.142Z,3.17
2022-10-22T01:43:50.500Z,4.20
2022-10-22T01:46:19.663Z,2.40
2022-10-22T01:48:59.109Z,2.20
2022-10-22T01:51:34.799Z,2.90
2022-10-22T01:54:08.764Z,2.80
2022-10-22T01:56:49.663Z,2.50
2022-10-22T01:59:25.982Z,3.97
2022-10-22T02:01:58.503Z,1.40
2022-10-22T02:04:29.195Z,1.60
2022-10-22T02:07:00.648Z,1.67
2022-10-22T02:09:30.088Z,1.70
2022-10-22T02:12:00.622Z,1.53
2022-10-22T02:14:31.231Z,2.80
2022-10-22T02:17:00.592Z,3.60
2022-10-22T02:19:30.722Z,1.53
2022-10-22T02:21:59.214Z,1.77
2022-10-22T02:24:27.488Z,1.50
2022-10-22T02:27:02.090Z,1.00
2022-10-22T02:29:36.204Z,1.63
2022-10-22T02:32:05.468Z,2.83
2022-10-22T02:34:33.791Z,1.30
2022-10-22T02:37:03.588Z,1.27
2022-10-22T02:39:32.609Z,1.30
2022-10-22T02:42:02.151Z,1.40
2022-10-22T02:44:31.802Z,1.10
2022-10-22T02:47:00.418Z,1.10
2022-10-22T02:49:28.785Z,1.40
2022-10-22T02:51:57.113Z,1.03
2022-10-22T02:54:25.107Z,1.30
2022-10-22T02:56:53.101Z,2.70
2022-10-22T02:59:21.084Z,1.10
2022-10-22T03:01:50.434Z,1.10
2022-10-22T03:04:18.400Z,1.30
2022-10-22T03:06:48.804Z,1.20
2022-10-22T03:09:20.141Z,1.40
2022-10-22T03:11:50.833Z,1.00
2022-10-22T03:14:18.945Z,1.10
2022-10-22T03:16:47.673Z,1.20
2022-10-22T03:19:17.041Z,1.43
2022-10-22T03:21:47.381Z,1.10
2022-10-22T03:24:17.684Z,1.47
2022-10-22T03:26:46.801Z,2.33
2022-10-22T03:29:16.491Z,1.10
2022-10-22T03:31:44.586Z,1.13
2022-10-22T03:34:13.481Z,0.70
2022-10-22T03:36:43.184Z,0.87
2022-10-22T03:39:13.882Z,1.87
2022-10-22T03:41:42.786Z,1.33
2022-10-22T03:44:10.823Z,2.90
2022-10-22T03:46:38.801Z,1.73
2022-10-22T03:49:06.795Z,1.30
2022-10-22T03:51:35.878Z,1.13
2022-10-22T03:54:05.744Z,1.20
2022-10-22T03:56:33.930Z,1.03
2022-10-22T03:59:02.305Z,1.03
2022-10-22T04:01:31.447Z,2.03
2022-10-22T04:04:00.724Z,1.00
2022-10-22T04:06:30.713Z,1.20
2022-10-22T04:08:58.796Z,1.43
2022-10-22T04:11:28.121Z,1.00
2022-10-22T04:13:56.092Z,1.00
2022-10-22T04:16:26.317Z,0.93
2022-10-22T04:18:56.705Z,0.90
2022-10-22T04:21:24.877Z,0.97
2022-10-22T04:23:54.054Z,1.13
2022-10-22T04:26:22.267Z,1.07
2022-10-22T04:28:52.422Z,0.90
2022-10-22T04:31:21.751Z,1.10
2022-10-22T04:33:53.836Z,0.97
2022-10-22T04:36:21.871Z,2.90
2022-10-22T04:38:56.106Z,1.70
2022-10-22T04:41:25.830Z,0.80
2022-10-22T04:43:56.399Z,1.60
2022-10-22T04:46:25.095Z,1.00
2022-10-22T04:48:53.410Z,1.10
2022-10-22T04:51:23.314Z,1.07
2022-10-22T04:53:51.878Z,1.23
2022-10-22T04:56:21.553Z,1.93
2022-10-22T04:58:50.404Z,0.90
2022-10-22T05:01:21.420Z,0.87
2022-10-22T05:03:52.650Z,1.30
2022-10-22T05:06:21.528Z,1.77
2022-10-22T05:08:49.989Z,0.80
2022-10-22T05:11:19.829Z,1.07
2022-10-22T05:13:48.423Z,0.97
2022-10-22T05:16:16.619Z,0.90
2022-10-22T05:18:46.350Z,0.80
2022-10-22T05:21:17.065Z,0.93
2022-10-22T05:23:46.439Z,0.87
2022-10-22T05:26:16.362Z,3.23
2022-10-22T05:28:44.392Z,1.30
2022-10-22T05:31:13.688Z,0.90
2022-10-22T05:33:42.196Z,1.00
2022-10-22T05:36:14.338Z,0.90
2022-10-22T05:38:42.389Z,1.27
2022-10-22T05:41:12.158Z,1.73
2022-10-22T05:43:40.507Z,1.10
2022-10-22T05:46:09.502Z,1.00
2022-10-22T05:48:37.732Z,2.53
2022-10-22T05:51:06.980Z,0.80
2022-10-22T05:53:37.782Z,0.80
2022-10-22T05:56:08.102Z,1.03
2022-10-22T05:58:36.533Z,1.00
2022-10-22T06:01:05.414Z,1.57
2022-10-22T06:03:33.455Z,1.00
2022-10-22T06:06:02.574Z,0.90
2022-10-22T06:08:31.353Z,0.90
2022-10-22T06:11:00.912Z,0.80
2022-10-22T06:13:28.999Z,1.17
2022-10-22T06:15:57.681Z,0.83
2022-10-22T06:18:25.655Z,0.80
2022-10-22T06:20:53.620Z,1.00
2022-10-22T06:23:21.595Z,0.80
2022-10-22T06:25:57.508Z,0.87
2022-10-22T06:28:27.079Z,0.97
2022-10-22T06:30:55.158Z,0.80
2022-10-22T06:33:23.149Z,1.67
2022-10-22T06:35:51.152Z,1.90
2022-10-22T06:38:19.094Z,2.13
2022-10-22T06:40:47.167Z,0.93
2022-10-22T06:43:15.759Z,1.00
2022-10-22T06:45:45.072Z,0.80
2022-10-22T06:48:13.110Z,1.10
2022-10-22T06:50:41.982Z,1.20
2022-10-22T06:53:09.981Z,0.83
2022-10-22T06:55:38.066Z,1.20
2022-10-22T06:58:30.773Z,1.50
2022-10-22T07:01:04.670Z,1.20
2022-10-22T07:03:32.735Z,1.47
2022-10-22T07:06:01.945Z,0.93
2022-10-22T07:08:30.545Z,1.10
2022-10-22T07:11:07.201Z,1.17
2022-10-22T07:13:35.384Z,0.90
2022-10-22T07:16:05.275Z,1.00
2022-10-22T07:18:34.017Z,0.90
2022-10-22T07:21:02.225Z,0.80
2022-10-22T07:23:30.489Z,0.87
2022-10-22T07:25:59.174Z,0.80
2022-10-22T07:28:28.054Z,2.10
2022-10-22T07:30:56.214Z,1.50
2022-10-22T07:33:25.781Z,0.90
2022-10-22T07:35:58.970Z,1.10
2022-10-22T07:38:27.078Z,1.50
2022-10-22T07:40:55.398Z,1.40
2022-10-22T07:43:23.608Z,1.20
2022-10-22T07:45:51.695Z,0.90
2022-10-22T07:48:20.025Z,2.60
2022-10-22T07:50:50.300Z,1.10
2022-10-22T07:53:18.336Z,2.30
2022-10-22T07:55:49.259Z,1.40
2022-10-22T07:58:17.316Z,1.20
2022-10-22T08:00:45.588Z,0.97
2022-10-22T08:03:14.762Z,1.27
2022-10-22T08:05:43.804Z,1.20
2022-10-22T08:08:14.035Z,1.97
2022-10-22T08:10:42.334Z,1.00
2022-10-22T08:13:10.341Z,1.40
2022-10-22T08:15:38.419Z,1.00
2022-10-22T08:18:06.727Z,1.00
2022-10-22T08:20:34.706Z,0.77
2022-10-22T08:23:02.769Z,1.20
2022-10-22T08:25:32.247Z,1.00
2022-10-22T08:28:00.309Z,1.17
2022-10-22T08:30:29.805Z,1.87
2022-10-22T08:32:58.140Z,1.10
2022-10-22T08:35:26.131Z,1.33
2022-10-22T08:37:54.144Z,1.00
2022-10-22T08:40:26.022Z,1.10
2022-10-22T08:43:14.466Z,1.80
2022-10-22T08:45:45.169Z,1.83
2022-10-22T08:48:24.813Z,1.00
2022-10-22T08:50:54.016Z,1.00
2022-10-22T08:53:26.276Z,1.60
2022-10-22T08:55:55.059Z,0.90
2022-10-22T08:58:29.482Z,0.90
2022-10-22T09:01:01.163Z,0.93
2022-10-22T09:03:37.297Z,0.80
2022-10-22T09:06:10.915Z,1.20
2022-10-22T09:08:40.240Z,0.80
2022-10-22T09:11:15.154Z,0.80
2022-10-22T09:13:46.292Z,0.80
2022-10-22T09:16:18.124Z,1.07
2022-10-22T09:19:01.675Z,0.80
2022-10-22T09:21:35.722Z,1.90
2022-10-22T09:24:12.332Z,0.90
2022-10-22T09:26:41.883Z,0.70
2022-10-22T09:29:16.060Z,1.27
2022-10-22T09:31:44.199Z,0.70
2022-10-22T09:34:15.420Z,1.27
2022-10-22T09:36:43.417Z,1.83
2022-10-22T09:39:23.848Z,0.80
2022-10-22T09:41:51.857Z,1.00
2022-10-22T09:44:21.503Z,1.37
2022-10-22T09:46:49.483Z,1.00
2022-10-22T09:49:19.349Z,0.70
2022-10-22T09:51:54.428Z,0.80
2022-10-22T09:54:25.385Z,0.90
2022-10-22T09:56:56.914Z,0.80
2022-10-22T09:59:31.694Z,0.80
2022-10-22T10:02:19.752Z,0.97
2022-10-22T10:04:58.114Z,0.93
2022-10-22T10:07:27.863Z,1.47
2022-10-22T10:09:56.081Z,1.07
2022-10-22T10:12:34.817Z,0.80
2022-10-22T10:15:13.105Z,0.80
2022-10-22T10:17:45.185Z,1.73
2022-10-22T10:20:25.520Z,2.70
2022-10-22T10:22:59.020Z,1.17
2022-10-22T10:25:39.714Z,1.10
2022-10-22T10:28:21.609Z,0.70
2022-10-22T10:30:56.148Z,0.80
2022-10-22T10:33:31.332Z,0.90
2022-10-22T10:36:04.714Z,1.17
2022-10-22T10:38:53.050Z,0.97
2022-10-22T10:41:26.862Z,0.80
2022-10-22T10:44:13.038Z,1.20
2022-10-22T10:46:47.532Z,0.90
2022-10-22T10:49:20.110Z,0.83
2022-10-22T10:51:55.016Z,1.47
2022-10-22T10:54:39.968Z,0.77
2022-10-22T10:57:18.134Z,0.80
2022-10-22T10:59:57.866Z,1.00
2022-10-22T11:02:47.499Z,1.00
2022-10-22T11:05:23.504Z,1.03
2022-10-22T11:07:56.368Z,1.03
2022-10-22T11:10:30.506Z,0.97
2022-10-22T11:13:03.179Z,0.80
2022-10-22T11:15:34.303Z,0.70
2022-10-22T11:18:09.521Z,0.70
2022-10-22T11:20:45.795Z,1.13
2022-10-22T11:23:20.413Z,1.30
2022-10-22T11:25:50.571Z,0.90
2022-10-22T11:28:22.435Z,1.00
2022-10-22T11:30:55.168Z,0.90
2022-10-22T11:33:26.249Z,0.90
2022-10-22T11:35:54.428Z,0.80
2022-10-22T11:38:26.511Z,1.20
2022-10-22T11:41:00.013Z,0.80
2022-10-22T11:43:30.811Z,0.80
2022-10-22T11:46:03.027Z,0.97
2022-10-22T11:48:38.584Z,0.80
2022-10-22T11:51:30.452Z,0.70
2022-10-22T11:53:59.710Z,0.90
2022-10-22T11:56:28.713Z,0.80
2022-10-22T11:58:57.035Z,0.70
2022-10-22T12:01:27.669Z,0.90
2022-10-22T12:04:19.615Z,0.70
2022-10-22T12:06:56.625Z,1.87
2022-10-22T12:09:26.128Z,0.70
2022-10-22T12:11:54.122Z,0.80
2022-10-22T12:14:26.646Z,1.57
2022-10-22T12:16:57.966Z,0.70
2022-10-22T12:19:30.148Z,2.00
2022-10-22T12:22:00.118Z,0.80
2022-10-22T12:24:33.770Z,0.80
2022-10-22T12:27:01.761Z,1.20
2022-10-22T12:29:32.919Z,0.93
2022-10-22T12:32:04.441Z,0.80
2022-10-22T12:34:33.845Z,1.20
2022-10-22T12:37:05.984Z,0.80
2022-10-22T12:39:35.444Z,1.10
2022-10-22T12:42:06.201Z,0.70
2022-10-22T12:44:34.502Z,0.90
2022-10-22T12:47:02.533Z,3.07
2022-10-22T12:49:37.820Z,0.70
2022-10-22T12:52:10.965Z,0.70
2022-10-22T12:54:41.813Z,1.10
2022-10-22T12:57:14.740Z,1.07
2022-10-22T12:59:47.229Z,1.33
2022-10-22T13:02:21.378Z,0.80
2022-10-22T13:05:23.080Z,0.80
2022-10-22T13:07:52.795Z,0.70
2022-10-22T13:10:25.448Z,0.70
2022-10-22T13:12:57.035Z,0.70
2022-10-22T13:15:36.670Z,0.80
2022-10-22T13:18:07.492Z,1.17
2022-10-22T13:20:38.537Z,1.10
2022-10-22T13:23:07.435Z,1.27
2022-10-22T13:25:37.311Z,1.00
2022-10-22T13:28:19.568Z,0.70
2022-10-22T13:30:54.524Z,0.80
2022-10-22T13:33:26.670Z,0.80
2022-10-22T13:35:56.740Z,0.90
2022-10-22T13:38:26.129Z,1.40
2022-10-22T13:40:54.792Z,0.90
2022-10-22T13:43:22.886Z,1.00
2022-10-22T13:45:54.414Z,0.77
2022-10-22T13:48:23.687Z,0.90
2022-10-22T13:50:52.110Z,0.90
2022-10-22T13:53:23.380Z,0.80
2022-10-22T13:55:51.373Z,0.73
2022-10-22T13:58:21.164Z,0.97
2022-10-22T14:00:51.317Z,0.90
2022-10-22T14:03:21.852Z,0.90
2022-10-22T14:05:50.230Z,0.70
2022-10-22T14:08:21.244Z,0.90
2022-10-22T14:10:49.578Z,0.70
2022-10-22T14:13:18.705Z,1.10
2022-10-22T14:15:47.972Z,1.67
2022-10-22T14:18:24.090Z,1.10
2022-10-22T14:20:53.973Z,1.70
2022-10-22T14:23:24.603Z,1.43
2022-10-22T14:25:52.841Z,1.03
2022-10-22T14:28:21.050Z,0.70
2022-10-22T14:30:49.249Z,0.80
2022-10-22T14:33:18.904Z,1.00
2022-10-22T14:35:47.142Z,1.00
2022-10-22T14:38:15.503Z,1.00
2022-10-22T14:40:45.380Z,0.80
2022-10-22T14:43:14.082Z,1.87
2022-10-22T14:45:42.039Z,1.13
2022-10-22T14:48:10.073Z,3.50
2022-10-22T14:50:38.176Z,1.23
2022-10-22T14:53:06.274Z,2.07
2022-10-22T14:55:34.297Z,1.30
2022-10-22T14:58:03.843Z,1.20
2022-10-22T15:00:32.023Z,1.00
2022-10-22T15:03:03.343Z,1.10
2022-10-22T15:05:32.422Z,1.20
2022-10-22T15:08:00.523Z,0.83
2022-10-22T15:10:28.616Z,1.17
2022-10-22T15:12:56.618Z,1.10
2022-10-22T15:15:30.498Z,1.13
2022-10-22T15:18:03.429Z,0.90
2022-10-22T15:20:31.567Z,2.20
2022-10-22T15:22:59.620Z,0.90
2022-10-22T15:25:28.678Z,1.30
2022-10-22T15:28:00.745Z,1.10
2022-10-22T15:30:36.848Z,0.80
2022-10-22T15:33:05.004Z,1.30
2022-10-22T15:35:33.001Z,1.20
2022-10-22T15:38:01.217Z,1.23
2022-10-22T15:40:29.306Z,1.40
2022-10-22T15:42:57.404Z,0.87
2022-10-22T15:45:25.781Z,1.10
2022-10-22T15:47:55.235Z,0.90
2022-10-22T15:50:23.261Z,1.00
2022-10-22T15:52:51.357Z,1.43
2022-10-22T15:55:19.557Z,0.80
2022-10-22T15:57:47.966Z,0.90
2022-10-22T16:00:16.757Z,1.50
2022-10-22T16:02:44.730Z,1.00
2022-10-22T16:05:14.240Z,2.90
2022-10-22T16:07:42.974Z,1.00
2022-10-22T16:10:12.870Z,1.03
2022-10-22T16:12:42.539Z,0.80
2022-10-22T16:15:11.573Z,1.00
2022-10-22T16:17:39.587Z,3.70
2022-10-22T16:20:08.524Z,1.10
2022-10-22T16:22:38.096Z,1.00
2022-10-22T16:25:07.133Z,0.90
2022-10-22T16:27:35.164Z,1.13
2022-10-22T16:30:03.258Z,3.40
2022-10-22T16:32:31.665Z,2.00
2022-10-22T16:34:59.772Z,2.73
2022-10-22T16:37:27.823Z,2.77
2022-10-22T16:39:57.205Z,1.20
2022-10-22T16:42:25.248Z,4.23
2022-10-22T16:44:53.397Z,1.20
2022-10-22T16:47:21.440Z,1.03
2022-10-22T16:49:49.436Z,1.27
2022-10-22T16:52:17.389Z,2.27
2022-10-22T16:54:46.745Z,1.20
2022-10-22T16:57:16.148Z,1.73
2022-10-22T16:59:44.117Z,2.33
2022-10-22T17:02:12.338Z,4.50
2022-10-22T17:04:40.282Z,1.70
2022-10-22T17:07:08.251Z,2.77
2022-10-22T17:09:36.314Z,2.80
2022-10-22T17:12:04.788Z,2.83
2022-10-22T17:14:34.174Z,4.40
2022-10-22T17:17:02.138Z,5.60
2022-10-22T17:19:30.210Z,3.20
2022-10-22T17:21:58.219Z,3.97
2022-10-22T17:24:26.233Z,3.90
2022-10-22T17:26:54.416Z,3.80
2022-10-22T17:29:22.810Z,5.90
2022-10-22T17:31:52.601Z,4.20
2022-10-22T17:34:20.599Z,5.97
2022-10-22T17:36:48.688Z,4.10
2022-10-22T17:39:18.761Z,4.50
2022-10-22T17:41:47.031Z,3.60
2022-10-22T17:44:16.872Z,4.30
2022-10-22T17:46:45.313Z,3.27
2022-10-22T17:49:19.481Z,4.07
2022-10-22T17:51:48.189Z,5.00
2022-10-22T17:54:16.189Z,5.70
2022-10-22T17:56:44.334Z,3.00
2022-10-22T17:59:15.850Z,5.10
2022-10-22T18:01:45.784Z,4.20
2022-10-22T18:04:18.304Z,4.90
2022-10-22T18:06:47.170Z,3.83
2022-10-22T18:09:18.309Z,3.10
2022-10-22T18:11:47.320Z,4.27
2022-10-22T18:14:15.661Z,1.80
2022-10-22T18:16:43.705Z,2.37
2022-10-22T18:19:12.351Z,2.23
2022-10-22T18:21:41.703Z,2.67
2022-10-22T18:24:11.194Z,2.80
2022-10-22T18:26:39.188Z,2.00
2022-10-22T18:29:07.176Z,4.33
2022-10-22T18:31:35.205Z,2.30
2022-10-22T18:34:03.201Z,1.70
2022-10-22T18:36:31.255Z,1.63
2022-10-22T18:39:01.848Z,1.60
2022-10-22T18:41:31.121Z,1.60
2022-10-22T18:44:00.288Z,3.20
2022-10-22T18:46:33.670Z,1.60
2022-10-22T18:49:02.291Z,2.47
2022-10-22T18:51:32.610Z,2.00
2022-10-22T18:54:22.272Z,4.27
2022-10-22T18:56:51.357Z,3.00
2022-10-22T18:59:21.161Z,3.50
2022-10-22T19:01:49.504Z,2.50
2022-10-22T19:04:17.524Z,3.03
2022-10-22T19:06:46.045Z,3.60
2022-10-22T19:09:16.259Z,3.10
2022-10-22T19:11:44.704Z,2.43
2022-10-22T19:14:13.966Z,2.03
2022-10-22T19:16:41.960Z,2.50
2022-10-22T19:19:09.967Z,6.03
2022-10-22T19:21:38.670Z,2.83
2022-10-22T19:24:07.515Z,2.60
2022-10-22T19:26:36.919Z,3.63
2022-10-22T19:29:05.353Z,3.40
2022-10-22T19:31:33.798Z,2.40
2022-10-22T19:34:02.819Z,6.47
2022-10-22T19:36:32.624Z,4.23
2022-10-22T19:39:00.875Z,3.03
2022-10-22T19:41:30.481Z,3.20
2022-10-22T19:44:00.993Z,3.20
2022-10-22T19:46:32.454Z,1.77
2022-10-22T19:49:00.776Z,2.90
2022-10-22T19:51:30.758Z,4.07
2022-10-22T19:54:00.148Z,3.20
2022-10-22T19:56:28.868Z,3.47
2022-10-22T19:58:56.936Z,3.43
2022-10-22T20:01:27.407Z,4.13
2022-10-22T20:03:55.639Z,4.03
2022-10-22T20:06:23.705Z,4.17
2022-10-22T20:08:55.221Z,4.87
2022-10-22T20:11:26.235Z,2.23
2022-10-22T20:13:54.653Z,4.43
2022-10-22T20:16:24.365Z,3.13
2022-10-22T20:18:53.882Z,3.10
2022-10-22T20:21:22.306Z,3.17
2022-10-22T20:23:54.116Z,3.33
2022-10-22T20:26:47.327Z,3.10
2022-10-22T20:29:16.006Z,4.07
2022-10-22T20:31:44.247Z,4.40
2022-10-22T20:34:13.637Z,5.70
2022-10-22T20:36:41.660Z,2.87
2022-10-22T20:39:12.555Z,2.63
2022-10-22T20:41:41.036Z,3.10
2022-10-22T20:44:12.374Z,6.00
2022-10-22T20:46:40.448Z,3.87
2022-10-22T20:49:10.990Z,2.90
2022-10-22T20:51:40.516Z,2.10
2022-10-22T20:54:09.277Z,4.83
2022-10-22T20:56:38.181Z,3.80
2022-10-22T20:59:08.224Z,2.30
2022-10-22T21:01:38.039Z,1.70
2022-10-22T21:04:06.753Z,5.20
2022-10-22T21:06:37.930Z,2.60
2022-10-22T21:09:08.827Z,1.63
2022-10-22T21:11:37.177Z,3.03
2022-10-22T21:14:06.105Z,2.37
2022-10-22T21:16:34.636Z,2.03
2022-10-22T21:19:03.051Z,1.93
2022-10-22T21:21:31.110Z,3.40
2022-10-22T21:23:59.096Z,2.10
2022-10-22T21:26:28.507Z,1.90
2022-10-22T21:28:56.473Z,1.73
2022-10-22T21:31:26.220Z,1.50
2022-10-22T21:33:54.796Z,1.57
2022-10-22T21:36:23.688Z,2.50
2022-10-22T21:38:52.559Z,2.03
2022-10-22T21:41:22.416Z,2.33
2022-10-22T21:43:52.289Z,4.07
2022-10-22T21:46:21.396Z,1.60
2022-10-22T21:48:53.923Z,2.33
2022-10-22T21:51:22.983Z,1.40
2022-10-22T21:56:22.285Z,2.63
2022-10-22T21:58:51.704Z,1.73
2022-10-22T22:01:19.809Z,2.53
2022-10-22T22:03:49.902Z,2.50
2022-10-22T22:06:21.355Z,2.87
2022-10-22T22:08:51.013Z,4.13
2022-10-22T22:11:20.655Z,2.83
2022-10-22T22:13:49.338Z,1.80
2022-10-22T22:16:22.527Z,2.23
2022-10-22T22:18:53.925Z,6.20
2022-10-22T22:21:23.074Z,2.53
2022-10-22T22:23:51.757Z,1.67
2022-10-22T22:26:25.374Z,6.43
2022-10-22T22:28:56.501Z,2.50
2022-10-22T22:31:28.182Z,2.80
2022-10-22T22:33:59.674Z,2.57
2022-10-22T22:36:27.701Z,3.40
2022-10-22T22:38:56.421Z,5.70
2022-10-22T22:41:24.493Z,2.73
2022-10-22T22:43:52.542Z,1.40
2022-10-22T22:46:20.540Z,2.53
2022-10-22T22:48:50.362Z,1.40
2022-10-22T22:51:18.734Z,3.13
2022-10-22T22:54:12.318Z,2.90
2022-10-22T22:56:40.945Z,2.40
2022-10-22T22:59:08.921Z,2.37
2022-10-22T23:01:38.717Z,2.27
2022-10-22T23:04:12.220Z,3.03
2022-10-22T23:06:40.745Z,2.10
2022-10-22T23:09:11.652Z,2.40
2022-10-22T23:11:40.500Z,5.00
2022-10-22T23:14:09.684Z,1.80
2022-10-22T23:16:41.094Z,1.93
2022-10-22T23:19:11.285Z,2.73
2022-10-22T23:21:41.089Z,2.53
2022-10-22T23:24:12.450Z,2.47
2022-10-22T23:26:42.468Z,2.30
2022-10-22T23:29:13.172Z,2.37
2022-10-22T23:31:41.441Z,2.20
2022-10-22T23:34:11.984Z,3.77
2022-10-22T23:36:40.525Z,2.87
2022-10-22T23:39:10.427Z,3.20
2022-10-22T23:41:38.684Z,2.30
2022-10-22T23:44:07.273Z,2.80
2022-10-22T23:46:35.660Z,2.90
2022-10-22T23:49:03.723Z,1.40
2022-10-22T23:51:33.032Z,2.10
2022-10-22T23:54:02.716Z,2.33
2022-10-22T23:56:31.258Z,1.73
2022-10-22T23:58:59.510Z,2.37
